createdAt,value
2023-06-30T00:02:02.197Z,2.83
2023-06-30T00:04:31.432Z,2.83
2023-06-30T00:06:59.117Z,2.50
2023-06-30T00:09:26.957Z,2.70
2023-06-30T00:11:56.146Z,2.50
2023-06-30T00:14:24.155Z,2.87
2023-06-30T00:16:52.230Z,2.50
2023-06-30T00:19:21.107Z,2.83
2023-06-30T00:21:53.287Z,2.25
2023-06-30T00:24:21.666Z,2.40
2023-06-30T00:26:49.102Z,2.55
2023-06-30T00:29:17.721Z,2.83
2023-06-30T00:31:45.552Z,2.33
2023-06-30T00:34:13.157Z,2.80
2023-06-30T00:36:40.650Z,2.50
2023-06-30T00:39:08.389Z,2.58
2023-06-30T00:41:35.935Z,2.62
2023-06-30T00:44:03.393Z,2.92
2023-06-30T00:46:31.174Z,2.40
2023-06-30T00:48:59.389Z,2.50
2023-06-30T00:51:27.028Z,2.60
2023-06-30T00:53:56.949Z,2.67
2023-06-30T00:56:26.810Z,2.45
2023-06-30T00:58:54.620Z,2.45
2023-06-30T01:01:48.974Z,2.33
2023-06-30T01:04:43.531Z,2.47
2023-06-30T01:07:23.922Z,2.83
2023-06-30T01:10:15.232Z,2.78
2023-06-30T01:12:43.948Z,2.50
2023-06-30T01:15:12.885Z,2.80
2023-06-30T01:17:46.712Z,2.67
2023-06-30T01:20:17.784Z,2.45
2023-06-30T01:22:50.364Z,2.50
2023-06-30T01:25:27.645Z,2.42
2023-06-30T01:27:56.546Z,2.60
2023-06-30T01:30:25.255Z,2.75
2023-06-30T01:32:56.238Z,2.65
2023-06-30T01:35:24.274Z,2.97
2023-06-30T01:37:54.154Z,2.62
2023-06-30T01:40:22.225Z,2.37
2023-06-30T01:42:55.521Z,2.47
2023-06-30T01:45:26.851Z,2.78
2023-06-30T01:47:55.899Z,2.62
2023-06-30T01:50:23.746Z,2.42
2023-06-30T01:52:51.590Z,2.40
2023-06-30T01:55:19.313Z,2.83
2023-06-30T01:57:46.783Z,2.60
2023-06-30T02:00:15.240Z,2.30
2023-06-30T02:02:42.817Z,3.08
2023-06-30T02:05:13.014Z,2.50
2023-06-30T02:07:40.594Z,2.47
2023-06-30T02:10:08.989Z,2.62
2023-06-30T02:12:38.412Z,2.80
2023-06-30T02:15:06.759Z,2.70
2023-06-30T02:17:34.780Z,2.80
2023-06-30T02:20:07.520Z,2.53
2023-06-30T02:22:35.350Z,2.70
2023-06-30T02:25:03.164Z,2.35
2023-06-30T02:27:33.176Z,2.47
2023-06-30T02:30:09.320Z,2.50
2023-06-30T02:32:41.200Z,2.70
2023-06-30T02:35:10.268Z,2.42
2023-06-30T02:37:38.144Z,2.55
2023-06-30T02:40:06.871Z,2.50
2023-06-30T02:42:34.684Z,2.60
2023-06-30T02:45:02.148Z,2.45
2023-06-30T02:47:31.440Z,2.35
2023-06-30T02:49:59.251Z,2.70
2023-06-30T02:52:26.967Z,2.45
2023-06-30T02:54:54.563Z,2.90
2023-06-30T02:57:23.423Z,2.42
2023-06-30T02:59:51.539Z,2.28
2023-06-30T03:02:19.606Z,2.28
2023-06-30T03:04:47.696Z,2.53
2023-06-30T03:07:17.568Z,2.28
2023-06-30T03:09:46.055Z,2.65
2023-06-30T03:12:14.098Z,2.65
2023-06-30T03:14:43.138Z,2.45
2023-06-30T03:17:10.629Z,2.72
2023-06-30T03:19:38.513Z,2.53
2023-06-30T03:22:06.228Z,2.30
2023-06-30T03:24:33.725Z,2.45
2023-06-30T03:27:01.594Z,2.62
2023-06-30T03:29:29.176Z,2.40
2023-06-30T03:31:58.022Z,2.50
2023-06-30T03:34:25.876Z,2.35
2023-06-30T03:36:53.319Z,2.28
2023-06-30T03:39:21.085Z,2.22
2023-06-30T03:41:48.813Z,2.47
2023-06-30T03:44:16.371Z,2.80
2023-06-30T03:46:43.929Z,2.47
2023-06-30T03:49:11.751Z,2.90
2023-06-30T03:51:39.496Z,2.40
2023-06-30T03:54:09.912Z,2.70
2023-06-30T03:56:37.928Z,2.50
2023-06-30T03:59:06.311Z,2.75
2023-06-30T04:01:35.007Z,2.50
2023-06-30T04:04:03.737Z,2.95
2023-06-30T04:06:34.468Z,2.67
2023-06-30T04:09:01.937Z,2.17
2023-06-30T04:11:29.945Z,2.20
2023-06-30T04:14:00.298Z,2.42
2023-06-30T04:16:27.959Z,2.50
2023-06-30T04:18:56.164Z,2.58
2023-06-30T04:21:23.849Z,2.20
2023-06-30T04:23:51.319Z,2.42
2023-06-30T04:26:19.032Z,2.53
2023-06-30T04:28:46.763Z,2.25
2023-06-30T04:31:14.434Z,2.20
2023-06-30T04:33:42.219Z,2.30
2023-06-30T04:36:09.980Z,2.72
2023-06-30T04:38:37.623Z,2.40
2023-06-30T04:41:05.678Z,2.80
2023-06-30T04:43:34.116Z,2.40
2023-06-30T04:46:01.669Z,2.33
2023-06-30T04:48:29.573Z,2.70
2023-06-30T04:50:57.027Z,2.20
2023-06-30T04:53:24.496Z,2.90
2023-06-30T04:55:52.216Z,2.70
2023-06-30T04:58:19.677Z,3.33
2023-06-30T05:00:47.065Z,2.85
2023-06-30T05:03:14.856Z,3.37
2023-06-30T05:05:42.825Z,3.00
2023-06-30T05:08:10.381Z,3.30
2023-06-30T05:10:38.749Z,2.62
2023-06-30T05:13:06.236Z,3.10
2023-06-30T05:15:33.751Z,2.85
2023-06-30T05:18:02.130Z,3.15
2023-06-30T05:20:29.632Z,3.25
2023-06-30T05:22:57.054Z,3.22
2023-06-30T05:25:24.751Z,3.28
2023-06-30T05:27:52.271Z,3.03
2023-06-30T05:30:19.824Z,3.10
2023-06-30T05:32:47.523Z,3.15
2023-06-30T05:35:15.019Z,2.75
2023-06-30T05:37:42.466Z,3.42
2023-06-30T05:40:10.708Z,2.92
2023-06-30T05:42:38.310Z,3.55
2023-06-30T05:45:06.274Z,3.20
2023-06-30T05:47:34.044Z,3.15
2023-06-30T05:50:01.533Z,2.80
2023-06-30T05:52:29.047Z,3.50
2023-06-30T05:54:56.779Z,3.62
2023-06-30T05:57:24.201Z,3.30
2023-06-30T05:59:51.889Z,2.55
2023-06-30T06:02:19.694Z,3.40
2023-06-30T06:04:47.662Z,2.78
2023-06-30T06:07:15.313Z,2.92
2023-06-30T06:09:42.991Z,3.05
2023-06-30T06:12:10.727Z,3.12
2023-06-30T06:14:38.146Z,2.60
2023-06-30T06:17:05.788Z,2.55
2023-06-30T06:19:33.663Z,2.42
2023-06-30T06:22:01.833Z,2.30
2023-06-30T06:24:29.293Z,2.50
2023-06-30T06:26:57.053Z,2.37
2023-06-30T06:29:24.598Z,2.33
2023-06-30T06:31:52.727Z,2.58
2023-06-30T06:34:20.863Z,2.30
2023-06-30T06:36:48.903Z,2.30
2023-06-30T06:39:16.361Z,2.30
2023-06-30T06:41:45.995Z,2.30
2023-06-30T06:44:17.588Z,2.10
2023-06-30T06:46:45.358Z,2.03
2023-06-30T06:49:12.843Z,1.98
2023-06-30T06:51:40.403Z,1.80
2023-06-30T06:54:08.081Z,1.73
2023-06-30T06:56:35.528Z,2.12
2023-06-30T06:59:03.206Z,2.03
2023-06-30T07:01:31.709Z,2.40
2023-06-30T07:03:59.517Z,2.15
2023-06-30T07:06:26.966Z,2.30
2023-06-30T07:08:54.686Z,2.47
2023-06-30T07:11:22.234Z,1.62
2023-06-30T07:13:49.688Z,2.25
2023-06-30T07:16:19.511Z,2.28
2023-06-30T07:18:47.168Z,1.95
2023-06-30T07:21:14.632Z,1.95
2023-06-30T07:23:42.512Z,1.90
2023-06-30T07:26:10.687Z,2.15
2023-06-30T07:28:38.137Z,2.12
2023-06-30T07:31:05.911Z,2.20
2023-06-30T07:33:33.701Z,2.20
2023-06-30T07:36:01.138Z,1.98
2023-06-30T07:38:28.840Z,2.25
2023-06-30T07:40:57.493Z,1.87
2023-06-30T07:43:25.582Z,2.10
2023-06-30T07:45:53.510Z,2.08
2023-06-30T07:48:21.302Z,1.90
2023-06-30T07:50:59.612Z,2.00
2023-06-30T07:53:36.369Z,2.33
2023-06-30T07:56:04.020Z,1.77
2023-06-30T07:58:32.546Z,1.73
2023-06-30T08:01:00.316Z,1.87
2023-06-30T08:03:28.221Z,2.15
2023-06-30T08:05:57.645Z,2.17
2023-06-30T08:08:25.253Z,2.20
2023-06-30T08:10:53.039Z,2.10
2023-06-30T08:13:20.519Z,2.33
2023-06-30T08:15:49.503Z,2.05
2023-06-30T08:18:28.045Z,2.03
2023-06-30T08:21:00.759Z,1.98
2023-06-30T08:23:28.570Z,1.75
2023-06-30T08:25:56.531Z,2.05
2023-06-30T08:28:24.016Z,1.80
2023-06-30T08:30:52.671Z,1.98
2023-06-30T08:33:35.049Z,2.10
2023-06-30T08:36:07.512Z,1.87
2023-06-30T08:38:35.353Z,1.45
2023-06-30T08:41:04.284Z,2.05
2023-06-30T08:43:33.420Z,1.60
2023-06-30T08:46:05.070Z,1.70
2023-06-30T08:48:33.339Z,2.00
2023-06-30T08:51:01.445Z,1.80
2023-06-30T08:53:30.235Z,1.60
2023-06-30T08:55:59.574Z,1.60
2023-06-30T08:58:28.334Z,1.85
2023-06-30T09:00:59.104Z,1.40
2023-06-30T09:03:28.026Z,1.48
2023-06-30T09:05:56.948Z,1.80
2023-06-30T09:08:25.321Z,1.40
2023-06-30T09:10:54.644Z,1.40
2023-06-30T09:13:24.891Z,1.90
2023-06-30T09:15:55.698Z,1.30
2023-06-30T09:18:23.445Z,1.42
2023-06-30T09:20:51.075Z,1.55
2023-06-30T09:23:18.999Z,1.58
2023-06-30T09:25:46.981Z,1.37
2023-06-30T09:28:15.546Z,1.67
2023-06-30T09:30:45.539Z,1.60
2023-06-30T09:33:17.346Z,1.50
2023-06-30T09:35:48.599Z,1.50
2023-06-30T09:38:18.731Z,1.48
2023-06-30T09:40:48.411Z,1.45
2023-06-30T09:43:17.910Z,1.30
2023-06-30T09:46:04.298Z,1.42
2023-06-30T09:48:33.404Z,1.55
2023-06-30T09:51:01.179Z,1.62
2023-06-30T09:53:36.473Z,1.40
2023-06-30T09:56:04.920Z,1.62
2023-06-30T09:58:32.491Z,1.80
2023-06-30T10:01:00.180Z,1.30
2023-06-30T10:03:28.071Z,1.45
2023-06-30T10:05:55.623Z,1.98
2023-06-30T10:08:23.882Z,1.58
2023-06-30T10:10:54.927Z,1.40
2023-06-30T10:13:22.981Z,1.77
2023-06-30T10:15:51.293Z,1.50
2023-06-30T10:18:19.097Z,1.80
2023-06-30T10:20:49.706Z,1.70
2023-06-30T10:23:20.540Z,1.70
2023-06-30T10:25:49.264Z,1.85
2023-06-30T10:28:18.112Z,1.48
2023-06-30T10:30:45.945Z,1.52
2023-06-30T10:33:13.566Z,1.15
2023-06-30T10:35:41.570Z,1.73
2023-06-30T10:38:11.028Z,1.25
2023-06-30T10:40:38.671Z,1.40
2023-06-30T10:43:07.244Z,2.03
2023-06-30T10:45:35.708Z,1.30
2023-06-30T10:48:15.588Z,1.20
2023-06-30T10:50:45.613Z,1.25
2023-06-30T10:53:18.979Z,1.45
2023-06-30T10:55:48.089Z,1.40
2023-06-30T10:58:25.757Z,1.37
2023-06-30T11:01:06.858Z,1.50
2023-06-30T11:03:59.639Z,1.50
2023-06-30T11:06:27.947Z,1.40
2023-06-30T11:09:04.240Z,1.40
2023-06-30T11:11:51.797Z,1.50
2023-06-30T11:14:35.493Z,1.55
2023-06-30T11:17:05.616Z,1.12
2023-06-30T11:19:33.309Z,1.42
2023-06-30T11:22:26.815Z,1.10
2023-06-30T11:24:56.327Z,1.50
2023-06-30T11:27:24.195Z,1.10
2023-06-30T11:29:54.287Z,1.30
2023-06-30T11:32:32.275Z,1.52
2023-06-30T11:35:09.185Z,1.20
2023-06-30T11:37:38.059Z,1.60
2023-06-30T11:40:07.675Z,1.50
2023-06-30T11:42:40.593Z,1.60
2023-06-30T11:45:08.904Z,1.60
2023-06-30T11:47:37.271Z,2.05
2023-06-30T11:50:11.718Z,1.33
2023-06-30T11:52:40.359Z,1.33
2023-06-30T11:55:12.621Z,1.48
2023-06-30T11:57:41.708Z,1.20
2023-06-30T12:00:18.068Z,1.17
2023-06-30T12:02:57.375Z,1.40
2023-06-30T12:05:26.877Z,1.30
2023-06-30T12:07:58.902Z,1.60
2023-06-30T12:10:40.928Z,1.40
2023-06-30T12:13:09.594Z,1.20
2023-06-30T12:15:38.373Z,1.45
2023-06-30T12:18:07.314Z,1.37
2023-06-30T12:20:36.774Z,1.30
2023-06-30T12:23:06.188Z,1.33
2023-06-30T12:25:37.546Z,1.40
2023-06-30T12:30:36.258Z,1.30
2023-06-30T12:33:05.008Z,1.10
2023-06-30T12:35:38.426Z,1.30
2023-06-30T12:38:08.712Z,1.08
2023-06-30T12:40:36.682Z,1.50
2023-06-30T12:43:04.970Z,1.55
2023-06-30T12:45:34.427Z,1.00
2023-06-30T12:48:03.525Z,1.40
2023-06-30T12:50:31.102Z,1.20
2023-06-30T12:52:58.971Z,1.73
2023-06-30T12:55:27.838Z,1.42
2023-06-30T12:57:55.550Z,1.33
2023-06-30T13:00:23.015Z,1.42
2023-06-30T13:02:50.932Z,1.27
2023-06-30T13:05:18.442Z,1.33
2023-06-30T13:07:46.030Z,1.33
2023-06-30T13:10:14.840Z,1.67
2023-06-30T13:12:42.454Z,1.50
2023-06-30T13:15:10.363Z,1.17
2023-06-30T13:17:38.498Z,1.42
2023-06-30T13:20:09.009Z,1.40
2023-06-30T13:22:42.672Z,1.37
2023-06-30T13:25:14.919Z,1.42
2023-06-30T13:27:42.560Z,1.50
2023-06-30T13:30:10.244Z,1.20
2023-06-30T13:32:41.031Z,1.55
2023-06-30T13:35:09.086Z,1.50
2023-06-30T13:37:36.679Z,1.50
2023-06-30T13:40:05.580Z,1.40
2023-06-30T13:42:33.067Z,1.50
2023-06-30T13:45:00.936Z,1.50
2023-06-30T13:47:28.752Z,1.30
2023-06-30T13:49:56.269Z,1.30
2023-06-30T13:52:23.711Z,1.92
2023-06-30T13:54:51.478Z,1.40
2023-06-30T13:57:18.955Z,1.52
2023-06-30T13:59:46.424Z,1.50
2023-06-30T14:02:14.163Z,1.62
2023-06-30T14:04:42.027Z,1.35
2023-06-30T14:07:09.533Z,1.40
2023-06-30T14:09:37.004Z,1.27
2023-06-30T14:12:06.377Z,1.17
2023-06-30T14:14:34.095Z,1.45
2023-06-30T14:17:01.586Z,1.48
2023-06-30T14:19:30.034Z,1.48
2023-06-30T14:21:59.279Z,1.30
2023-06-30T14:24:26.748Z,3.05
2023-06-30T14:26:54.467Z,1.83
2023-06-30T14:29:22.104Z,1.60
2023-06-30T14:31:49.566Z,1.62
2023-06-30T14:34:17.468Z,1.77
2023-06-30T14:36:44.985Z,1.52
2023-06-30T14:39:12.752Z,1.52
2023-06-30T14:41:49.892Z,1.48
2023-06-30T14:44:26.699Z,1.37
2023-06-30T14:46:55.509Z,2.10
2023-06-30T14:49:23.055Z,1.30
2023-06-30T14:51:50.734Z,1.60
2023-06-30T14:54:18.471Z,1.55
2023-06-30T14:56:46.189Z,1.83
2023-06-30T14:59:13.742Z,1.33
2023-06-30T15:01:41.495Z,1.75
2023-06-30T15:04:09.019Z,1.60
2023-06-30T15:06:36.473Z,1.52
2023-06-30T15:09:04.238Z,1.67
2023-06-30T15:11:31.687Z,1.60
2023-06-30T15:13:59.108Z,1.58
2023-06-30T15:16:26.995Z,1.60
2023-06-30T15:18:54.449Z,1.70
2023-06-30T15:21:21.921Z,1.60
2023-06-30T15:23:49.695Z,2.33
2023-06-30T15:26:17.409Z,2.53
2023-06-30T15:28:44.837Z,1.60
2023-06-30T15:31:12.570Z,1.60
2023-06-30T15:33:40.113Z,1.52
2023-06-30T15:36:07.622Z,1.70
2023-06-30T15:38:35.399Z,1.80
2023-06-30T15:41:21.291Z,1.60
2023-06-30T15:43:51.251Z,1.80
2023-06-30T15:46:19.160Z,2.12
2023-06-30T15:48:46.737Z,1.75
2023-06-30T15:51:14.492Z,1.58
2023-06-30T15:53:42.244Z,1.98
2023-06-30T15:56:09.941Z,1.70
2023-06-30T15:58:37.707Z,1.62
2023-06-30T16:01:05.221Z,1.60
2023-06-30T16:03:33.227Z,1.83
2023-06-30T16:06:01.118Z,2.65
2023-06-30T16:08:28.692Z,2.62
2023-06-30T16:10:56.412Z,2.00
2023-06-30T16:13:23.906Z,1.70
2023-06-30T16:15:51.510Z,2.58
2023-06-30T16:18:20.126Z,2.90
2023-06-30T16:20:47.593Z,1.95
2023-06-30T16:23:15.056Z,1.83
2023-06-30T16:25:42.882Z,1.65
2023-06-30T16:28:10.339Z,1.70
2023-06-30T16:30:38.105Z,1.70
2023-06-30T16:33:06.019Z,1.77
2023-06-30T16:35:34.350Z,1.50
2023-06-30T16:38:02.436Z,1.90
2023-06-30T16:40:30.173Z,1.85
2023-06-30T16:42:57.802Z,2.05
2023-06-30T16:45:25.325Z,1.92
2023-06-30T16:47:53.096Z,1.92
2023-06-30T16:50:20.657Z,1.85
2023-06-30T16:52:49.872Z,1.83
2023-06-30T16:55:17.686Z,1.80
2023-06-30T16:57:45.185Z,1.65
2023-06-30T17:00:13.453Z,2.03
2023-06-30T17:02:41.388Z,2.35
2023-06-30T17:05:09.838Z,1.90
2023-06-30T17:07:37.494Z,1.95
2023-06-30T17:10:05.780Z,1.83
2023-06-30T17:12:34.868Z,1.40
2023-06-30T17:15:02.443Z,1.70
2023-06-30T17:17:30.218Z,1.92
2023-06-30T17:19:57.752Z,1.50
2023-06-30T17:22:25.261Z,1.90
2023-06-30T17:24:56.041Z,1.80
2023-06-30T17:27:26.419Z,1.87
2023-06-30T17:29:54.264Z,1.62
2023-06-30T17:32:21.829Z,2.00
2023-06-30T17:34:49.348Z,1.90
2023-06-30T17:37:17.095Z,1.90
2023-06-30T17:39:44.512Z,2.30
2023-06-30T17:42:12.008Z,1.95
2023-06-30T17:44:41.481Z,2.00
2023-06-30T17:47:09.054Z,1.92
2023-06-30T17:49:36.721Z,2.10
2023-06-30T17:52:04.807Z,1.70
2023-06-30T17:54:32.771Z,2.22
2023-06-30T17:57:02.841Z,2.33
2023-06-30T17:59:32.112Z,1.90
2023-06-30T18:02:00.038Z,2.30
2023-06-30T18:04:28.321Z,2.20
2023-06-30T18:07:02.239Z,2.15
2023-06-30T18:09:30.525Z,1.95
2023-06-30T18:11:58.880Z,2.05
2023-06-30T18:14:27.308Z,2.50
2023-06-30T18:16:55.024Z,2.15
2023-06-30T18:19:23.542Z,2.30
2023-06-30T18:21:52.358Z,1.87
2023-06-30T18:24:20.485Z,1.80
2023-06-30T18:26:49.161Z,1.80
2023-06-30T18:29:24.664Z,2.58
2023-06-30T18:31:53.942Z,2.15
2023-06-30T18:34:22.021Z,2.40
2023-06-30T18:36:49.902Z,2.15
2023-06-30T18:39:17.891Z,1.95
2023-06-30T18:41:45.598Z,2.70
2023-06-30T18:44:13.087Z,2.22
2023-06-30T18:46:40.890Z,2.40
2023-06-30T18:49:11.720Z,2.62
2023-06-30T18:51:42.912Z,2.33
2023-06-30T18:54:11.105Z,2.65
2023-06-30T18:56:38.804Z,3.60
2023-06-30T18:59:06.303Z,2.95
2023-06-30T19:01:34.377Z,3.00
2023-06-30T19:04:02.840Z,3.15
2023-06-30T19:06:30.773Z,3.00
2023-06-30T19:08:58.618Z,3.12
2023-06-30T19:11:26.357Z,3.00
2023-06-30T19:13:53.876Z,2.85
2023-06-30T19:16:21.805Z,2.72
2023-06-30T19:18:49.350Z,3.08
2023-06-30T19:21:17.446Z,2.80
2023-06-30T19:23:45.416Z,3.20
2023-06-30T19:26:13.127Z,2.90
2023-06-30T19:28:41.082Z,2.70
2023-06-30T19:31:09.021Z,2.83
2023-06-30T19:33:37.755Z,2.58
2023-06-30T19:36:06.379Z,3.08
2023-06-30T19:38:34.293Z,2.50
2023-06-30T19:41:01.873Z,2.60
2023-06-30T19:43:29.839Z,2.80
2023-06-30T19:45:57.587Z,2.92
2023-06-30T19:48:25.052Z,2.60
2023-06-30T19:50:52.553Z,2.35
2023-06-30T19:53:20.385Z,2.53
2023-06-30T19:55:48.220Z,2.87
2023-06-30T19:58:16.469Z,2.87
2023-06-30T20:00:44.303Z,3.28
2023-06-30T20:03:12.124Z,2.87
2023-06-30T20:05:39.701Z,3.22
2023-06-30T20:08:07.140Z,3.30
2023-06-30T20:10:35.155Z,3.08
2023-06-30T20:13:03.098Z,2.95
2023-06-30T20:15:32.371Z,3.05
2023-06-30T20:18:00.232Z,2.72
2023-06-30T20:20:28.847Z,2.90
2023-06-30T20:22:56.395Z,3.28
2023-06-30T20:25:24.623Z,3.35
2023-06-30T20:27:52.445Z,3.45
2023-06-30T20:30:20.179Z,3.10
2023-06-30T20:32:48.008Z,3.30
2023-06-30T20:35:18.268Z,3.20
2023-06-30T20:37:46.614Z,2.60
2023-06-30T20:40:14.395Z,2.80
2023-06-30T20:42:41.820Z,2.80
2023-06-30T20:45:10.422Z,2.92
2023-06-30T20:47:38.440Z,2.58
2023-06-30T20:50:06.585Z,3.72
2023-06-30T20:52:34.044Z,3.17
2023-06-30T20:55:01.949Z,3.40
2023-06-30T20:57:29.449Z,2.90
2023-06-30T20:59:57.240Z,2.90
2023-06-30T21:02:25.001Z,2.90
2023-06-30T21:04:54.136Z,3.00
2023-06-30T21:07:21.738Z,2.90
2023-06-30T21:09:49.650Z,2.72
2023-06-30T21:12:17.210Z,2.55
2023-06-30T21:14:44.785Z,2.37
2023-06-30T21:17:12.542Z,2.47
2023-06-30T21:19:40.990Z,2.90
2023-06-30T21:22:10.690Z,2.75
2023-06-30T21:24:38.484Z,3.10
2023-06-30T21:27:06.085Z,2.90
2023-06-30T21:29:33.486Z,2.97
2023-06-30T21:32:01.283Z,2.85
2023-06-30T21:34:28.856Z,2.92
2023-06-30T21:36:56.588Z,3.42
2023-06-30T21:39:24.431Z,3.17
2023-06-30T21:41:51.927Z,3.35
2023-06-30T21:44:19.599Z,3.30
2023-06-30T21:46:47.336Z,2.97
2023-06-30T21:49:14.789Z,2.80
2023-06-30T21:51:42.515Z,2.75
2023-06-30T21:54:10.237Z,3.12
2023-06-30T21:56:37.955Z,2.72
2023-06-30T21:59:06.000Z,3.05
2023-06-30T22:01:41.111Z,3.58
2023-06-30T22:04:10.287Z,3.28
2023-06-30T22:06:37.943Z,3.30
2023-06-30T22:09:15.491Z,2.92
2023-06-30T22:11:45.024Z,3.28
2023-06-30T22:14:15.436Z,3.17
2023-06-30T22:16:43.031Z,3.10
2023-06-30T22:19:10.736Z,3.22
2023-06-30T22:21:38.317Z,3.28
2023-06-30T22:24:06.017Z,3.37
2023-06-30T22:26:33.789Z,3.30
2023-06-30T22:29:01.226Z,3.37
2023-06-30T22:31:28.799Z,3.75
2023-06-30T22:33:56.654Z,3.17
2023-06-30T22:36:24.124Z,3.30
2023-06-30T22:38:51.540Z,3.03
2023-06-30T22:41:19.300Z,3.22
2023-06-30T22:43:48.620Z,2.85
2023-06-30T22:46:16.282Z,2.95
2023-06-30T22:48:44.519Z,3.62
2023-06-30T22:51:12.856Z,3.20
2023-06-30T22:53:40.289Z,3.72
2023-06-30T22:56:08.071Z,3.10
2023-06-30T22:58:35.655Z,3.67
2023-06-30T23:01:03.151Z,3.12
2023-06-30T23:03:31.086Z,3.22
2023-06-30T23:05:58.603Z,3.30
2023-06-30T23:08:26.079Z,2.90
2023-06-30T23:10:54.147Z,3.00
2023-06-30T23:13:21.580Z,3.30
2023-06-30T23:15:49.208Z,3.15
2023-06-30T23:18:20.445Z,3.12
2023-06-30T23:20:48.432Z,3.50
2023-06-30T23:23:16.145Z,3.50
2023-06-30T23:25:43.955Z,3.08
2023-06-30T23:28:11.367Z,3.58
2023-06-30T23:30:40.835Z,3.35
2023-06-30T23:33:08.870Z,3.83
2023-06-30T23:35:36.351Z,2.90
2023-06-30T23:38:03.799Z,3.08
2023-06-30T23:40:31.484Z,3.28
2023-06-30T23:43:01.031Z,3.40
2023-06-30T23:45:28.481Z,3.08
2023-06-30T23:47:56.285Z,3.12
2023-06-30T23:50:24.505Z,3.20
2023-06-30T23:52:51.938Z,3.10
2023-06-30T23:55:19.677Z,3.20
2023-06-30T23:57:47.169Z,3.42
